createdAt,value
2022-07-31T00:01:31.999Z,65.50
2022-07-31T00:04:01.191Z,65.80
2022-07-31T00:06:30.323Z,65.80
2022-07-31T00:08:59.329Z,65.80
2022-07-31T00:11:28.247Z,65.80
2022-07-31T00:13:58.721Z,66.00
2022-07-31T00:16:29.045Z,66.80
2022-07-31T00:18:58.368Z,66.10
2022-07-31T00:21:27.256Z,66.70
2022-07-31T00:23:56.211Z,65.90
2022-07-31T00:26:25.069Z,65.90
2022-07-31T00:28:54.187Z,65.90
2022-07-31T00:31:24.188Z,65.90
2022-07-31T00:33:54.613Z,65.90
2022-07-31T00:36:28.488Z,65.80
2022-07-31T00:38:59.589Z,65.90
2022-07-31T00:41:40.166Z,65.80
2022-07-31T00:44:12.336Z,65.80
2022-07-31T00:46:42.929Z,65.70
2022-07-31T00:49:13.918Z,65.60
2022-07-31T00:51:43.134Z,65.50
2022-07-31T00:54:17.525Z,65.50
2022-07-31T00:56:52.936Z,65.50
2022-07-31T00:59:24.535Z,65.40
2022-07-31T01:01:54.715Z,65.40
2022-07-31T01:04:26.270Z,65.40
2022-07-31T01:06:57.616Z,65.30
2022-07-31T01:09:26.711Z,65.40
2022-07-31T01:12:01.679Z,65.50
2022-07-31T01:14:34.947Z,65.50
2022-07-31T01:17:07.512Z,65.50
2022-07-31T01:19:42.704Z,65.50
2022-07-31T01:22:33.905Z,65.30
2022-07-31T01:25:10.810Z,65.40
2022-07-31T01:27:57.908Z,65.50
2022-07-31T01:30:34.045Z,65.50
2022-07-31T01:33:09.468Z,65.50
2022-07-31T01:35:43.094Z,65.40
2022-07-31T01:38:15.782Z,65.50
2022-07-31T01:40:47.044Z,65.50
2022-07-31T01:43:18.989Z,65.30
2022-07-31T01:45:54.054Z,65.20
2022-07-31T01:48:24.024Z,65.20
2022-07-31T01:50:56.658Z,65.10
2022-07-31T01:53:27.870Z,65.10
2022-07-31T01:56:02.959Z,65.10
2022-07-31T01:58:38.525Z,65.00
2022-07-31T02:01:16.642Z,65.00
2022-07-31T02:03:47.278Z,65.00
2022-07-31T02:06:21.618Z,65.10
2022-07-31T02:08:52.774Z,64.80
2022-07-31T02:11:22.664Z,64.80
2022-07-31T02:13:53.915Z,65.00
2022-07-31T02:16:27.943Z,65.10
2022-07-31T02:19:08.890Z,65.20
2022-07-31T02:21:38.050Z,65.40
2022-07-31T02:24:08.339Z,65.40
2022-07-31T02:26:39.081Z,65.60
2022-07-31T02:29:09.233Z,65.90
2022-07-31T02:32:03.265Z,65.90
2022-07-31T02:34:39.850Z,66.00
2022-07-31T02:37:09.525Z,66.10
2022-07-31T02:39:39.968Z,66.00
2022-07-31T02:42:09.758Z,66.80
2022-07-31T02:44:39.778Z,66.10
2022-07-31T02:47:10.583Z,66.00
2022-07-31T02:49:40.327Z,66.10
2022-07-31T02:52:10.039Z,66.10
2022-07-31T02:54:40.595Z,66.10
2022-07-31T02:57:10.344Z,66.10
2022-07-31T02:59:39.835Z,66.20
2022-07-31T03:02:10.059Z,66.20
2022-07-31T03:04:45.004Z,66.20
2022-07-31T03:07:14.106Z,66.00
2022-07-31T03:09:43.323Z,65.90
2022-07-31T03:12:34.984Z,65.70
2022-07-31T03:15:05.433Z,65.70
2022-07-31T03:17:40.911Z,65.80
2022-07-31T03:20:14.938Z,65.90
2022-07-31T03:22:45.123Z,65.80
2022-07-31T03:25:21.221Z,65.90
2022-07-31T03:27:55.513Z,66.80
2022-07-31T03:30:26.643Z,66.10
2022-07-31T03:33:02.841Z,66.10
2022-07-31T03:35:34.057Z,66.30
2022-07-31T03:38:40.524Z,66.20
2022-07-31T03:40:58.279Z,66.40
2022-07-31T03:43:28.998Z,66.40
2022-07-31T03:46:14.257Z,66.40
2022-07-31T03:48:44.871Z,66.50
2022-07-31T03:51:14.907Z,66.60
2022-07-31T03:53:45.364Z,66.60
2022-07-31T03:56:35.093Z,66.60
2022-07-31T03:59:04.783Z,66.60
2022-07-31T04:01:57.388Z,66.60
2022-07-31T04:04:55.076Z,66.50
2022-07-31T04:07:24.723Z,66.60
2022-07-31T04:09:53.582Z,66.70
2022-07-31T04:12:22.704Z,66.70
2022-07-31T04:14:51.688Z,66.70
2022-07-31T04:17:21.282Z,66.90
2022-07-31T04:19:50.194Z,67.10
2022-07-31T04:22:20.513Z,67.00
2022-07-31T04:24:50.435Z,67.00
2022-07-31T04:27:48.904Z,67.00
2022-07-31T04:30:19.203Z,66.90
2022-07-31T04:32:49.344Z,66.90
2022-07-31T04:35:23.082Z,67.00
2022-07-31T04:37:53.619Z,67.10
2022-07-31T04:40:26.287Z,67.10
2022-07-31T04:42:55.680Z,67.20
2022-07-31T04:45:25.286Z,67.40
2022-07-31T04:47:55.199Z,67.60
2022-07-31T04:50:24.127Z,67.70
2022-07-31T04:53:01.741Z,67.90
2022-07-31T04:55:36.023Z,68.00
2022-07-31T04:58:05.212Z,68.10
2022-07-31T05:00:34.190Z,68.10
2022-07-31T05:03:03.324Z,67.90
2022-07-31T05:05:33.460Z,67.90
2022-07-31T05:08:03.999Z,68.00
2022-07-31T05:11:00.203Z,68.00
2022-07-31T05:13:30.625Z,68.10
2022-07-31T05:15:59.540Z,68.00
2022-07-31T05:18:28.903Z,68.00
2022-07-31T05:21:17.211Z,68.20
2022-07-31T05:24:32.985Z,68.10
2022-07-31T05:27:11.304Z,68.00
2022-07-31T05:29:43.317Z,68.00
2022-07-31T05:32:13.497Z,68.20
2022-07-31T05:34:42.703Z,68.40
2022-07-31T05:37:12.814Z,68.60
2022-07-31T05:39:44.239Z,68.70
2022-07-31T05:42:31.889Z,68.70
2022-07-31T05:45:30.213Z,68.50
2022-07-31T05:47:59.224Z,68.40
2022-07-31T05:50:28.211Z,68.40
2022-07-31T05:52:57.370Z,68.40
2022-07-31T05:55:49.239Z,68.40
2022-07-31T05:58:32.644Z,68.50
2022-07-31T06:01:03.163Z,68.50
2022-07-31T06:03:38.501Z,68.40
2022-07-31T06:06:24.094Z,68.30
2022-07-31T06:08:53.092Z,68.20
2022-07-31T06:11:23.781Z,68.40
2022-07-31T06:13:52.966Z,68.30
2022-07-31T06:16:28.334Z,68.20
2022-07-31T06:18:57.508Z,68.40
2022-07-31T06:21:30.520Z,68.90
2022-07-31T06:24:00.267Z,68.60
2022-07-31T06:26:40.521Z,68.40
2022-07-31T06:29:11.331Z,68.40
2022-07-31T06:31:40.409Z,68.20
2022-07-31T06:34:09.612Z,68.50
2022-07-31T06:36:43.535Z,68.70
2022-07-31T06:39:16.679Z,68.60
2022-07-31T06:42:12.394Z,68.60
2022-07-31T06:44:46.002Z,68.30
2022-07-31T06:47:34.371Z,68.30
2022-07-31T06:50:29.745Z,68.10
2022-07-31T06:53:28.218Z,68.20
2022-07-31T06:55:57.476Z,68.70
2022-07-31T06:58:28.235Z,67.90
2022-07-31T07:00:57.329Z,68.00
2022-07-31T07:03:26.441Z,67.80
2022-07-31T07:05:55.573Z,67.80
2022-07-31T07:08:25.113Z,67.60
2022-07-31T07:10:54.562Z,67.70
2022-07-31T07:13:46.075Z,67.80
2022-07-31T07:16:17.969Z,68.10
2022-07-31T07:18:47.045Z,68.10
2022-07-31T07:21:16.263Z,67.80
2022-07-31T07:23:45.673Z,67.70
2022-07-31T07:26:37.775Z,67.30
2022-07-31T07:29:10.536Z,67.50
2022-07-31T07:31:39.506Z,67.40
2022-07-31T07:34:09.950Z,66.80
2022-07-31T07:36:38.786Z,67.00
2022-07-31T07:39:14.740Z,67.20
2022-07-31T07:41:44.804Z,66.80
2022-07-31T07:44:15.302Z,66.90
2022-07-31T07:46:44.338Z,67.10
2022-07-31T07:49:18.185Z,66.30
2022-07-31T07:52:22.835Z,65.90
2022-07-31T07:55:05.087Z,66.20
2022-07-31T07:57:54.539Z,66.10
2022-07-31T08:00:45.631Z,65.70
2022-07-31T08:03:48.428Z,65.70
2022-07-31T08:06:06.379Z,65.50
2022-07-31T08:08:39.390Z,64.70
2022-07-31T08:11:17.558Z,64.40
2022-07-31T08:14:08.246Z,64.40
2022-07-31T08:16:58.550Z,63.30
2022-07-31T08:19:27.945Z,62.70
2022-07-31T08:21:57.061Z,62.10
2022-07-31T08:24:26.063Z,61.60
2022-07-31T08:27:12.496Z,61.50
2022-07-31T08:29:45.376Z,61.00
2022-07-31T08:32:19.898Z,61.30
2022-07-31T08:34:59.092Z,60.90
2022-07-31T08:38:01.477Z,60.10
2022-07-31T08:40:20.040Z,59.10
2022-07-31T08:42:49.412Z,59.70
2022-07-31T08:45:18.621Z,59.60
2022-07-31T08:48:00.150Z,59.50
2022-07-31T08:50:34.455Z,58.90
2022-07-31T08:53:06.377Z,58.70
2022-07-31T08:55:56.483Z,58.30
2022-07-31T08:58:27.793Z,57.30
2022-07-31T09:00:57.716Z,57.50
2022-07-31T09:03:28.172Z,57.60
2022-07-31T09:06:00.818Z,57.70
2022-07-31T09:08:33.379Z,57.40
2022-07-31T09:11:06.094Z,56.60
2022-07-31T09:13:39.641Z,56.80
2022-07-31T09:16:30.504Z,56.50
2022-07-31T09:19:52.507Z,56.50
2022-07-31T09:21:56.156Z,56.20
2022-07-31T09:24:29.785Z,56.40
2022-07-31T09:27:07.318Z,53.80
2022-07-31T09:29:38.209Z,53.20
2022-07-31T09:32:12.956Z,54.30
2022-07-31T09:35:10.116Z,54.20
2022-07-31T09:37:41.026Z,54.20
2022-07-31T09:40:15.958Z,53.10
2022-07-31T09:43:16.248Z,52.20
2022-07-31T09:45:48.554Z,53.40
2022-07-31T09:48:26.200Z,51.60
2022-07-31T09:50:58.239Z,51.10
2022-07-31T09:53:43.350Z,51.60
2022-07-31T09:56:33.747Z,50.30
2022-07-31T09:59:03.541Z,51.40
2022-07-31T10:01:36.494Z,51.50
2022-07-31T10:04:07.901Z,51.90
2022-07-31T10:06:39.145Z,51.50
2022-07-31T10:09:09.725Z,51.60
2022-07-31T10:12:01.489Z,51.70
2022-07-31T10:14:33.440Z,51.70
2022-07-31T10:17:05.765Z,51.60
2022-07-31T10:20:09.838Z,51.90
2022-07-31T10:22:49.806Z,51.30
2022-07-31T10:25:28.014Z,51.50
2022-07-31T10:27:58.647Z,50.50
2022-07-31T10:30:28.999Z,51.10
2022-07-31T10:33:01.112Z,50.90
2022-07-31T10:35:31.161Z,50.50
2022-07-31T10:38:21.842Z,50.70
2022-07-31T10:41:13.308Z,50.10
2022-07-31T10:43:49.039Z,50.20
2022-07-31T10:46:29.931Z,50.10
2022-07-31T10:49:43.433Z,49.70
2022-07-31T10:52:38.155Z,51.00
2022-07-31T10:55:30.158Z,50.60
2022-07-31T10:58:12.818Z,50.00
2022-07-31T11:01:05.238Z,49.90
2022-07-31T11:04:01.615Z,50.10
2022-07-31T11:07:15.735Z,49.20
2022-07-31T11:09:53.571Z,49.40
2022-07-31T11:13:02.118Z,49.60
2022-07-31T11:15:48.652Z,49.50
2022-07-31T11:18:36.817Z,48.60
2022-07-31T11:21:22.781Z,48.10
2022-07-31T11:24:03.899Z,48.70
2022-07-31T11:26:41.658Z,48.20
2022-07-31T11:30:01.343Z,48.50
2022-07-31T11:32:12.909Z,47.60
2022-07-31T11:34:47.223Z,47.80
2022-07-31T11:37:19.195Z,48.20
2022-07-31T11:39:52.431Z,47.30
2022-07-31T11:42:27.490Z,47.00
2022-07-31T11:46:21.430Z,47.20
2022-07-31T11:48:11.124Z,47.20
2022-07-31T11:50:43.368Z,47.20
2022-07-31T11:53:12.824Z,47.20
2022-07-31T11:55:46.406Z,46.80
2022-07-31T11:58:16.823Z,46.30
2022-07-31T12:00:55.231Z,46.30
2022-07-31T12:03:27.660Z,45.50
2022-07-31T12:05:57.133Z,45.50
2022-07-31T12:08:27.346Z,45.10
2022-07-31T12:10:57.863Z,44.30
2022-07-31T12:13:27.579Z,44.20
2022-07-31T12:16:00.207Z,43.40
2022-07-31T12:18:30.562Z,43.40
2022-07-31T12:21:01.807Z,43.40
2022-07-31T12:23:41.960Z,43.20
2022-07-31T12:26:14.357Z,44.10
2022-07-31T12:28:43.884Z,43.90
2022-07-31T12:31:14.234Z,42.90
2022-07-31T12:33:44.284Z,42.80
2022-07-31T12:36:14.981Z,42.20
2022-07-31T12:38:45.004Z,41.40
2022-07-31T12:41:15.314Z,42.30
2022-07-31T12:43:51.036Z,41.10
2022-07-31T12:46:35.842Z,41.60
2022-07-31T12:49:05.499Z,41.90
2022-07-31T12:51:45.520Z,41.60
2022-07-31T12:54:17.371Z,41.40
2022-07-31T12:56:47.575Z,42.20
2022-07-31T12:59:16.594Z,42.30
2022-07-31T13:01:47.294Z,42.10
2022-07-31T13:04:19.183Z,41.90
2022-07-31T13:06:52.403Z,42.10
2022-07-31T13:09:22.050Z,42.60
2022-07-31T13:11:57.324Z,41.90
2022-07-31T13:14:26.886Z,41.80
2022-07-31T13:16:57.377Z,42.20
2022-07-31T13:19:27.266Z,41.70
2022-07-31T13:21:56.997Z,41.60
2022-07-31T13:24:26.475Z,42.00
2022-07-31T13:26:58.628Z,41.70
2022-07-31T13:29:27.780Z,41.80
2022-07-31T13:31:58.106Z,41.60
2022-07-31T13:34:27.234Z,41.70
2022-07-31T13:36:57.585Z,41.80
2022-07-31T13:39:26.525Z,41.20
2022-07-31T13:41:55.671Z,41.20
2022-07-31T13:44:24.495Z,41.20
2022-07-31T13:46:53.584Z,41.50
2022-07-31T13:49:29.232Z,40.80
2022-07-31T13:51:58.466Z,40.90
2022-07-31T13:54:28.456Z,41.10
2022-07-31T13:56:57.756Z,41.10
2022-07-31T13:59:27.251Z,41.10
2022-07-31T14:02:03.580Z,41.10
2022-07-31T14:04:38.417Z,40.70
2022-07-31T14:07:09.242Z,40.50
2022-07-31T14:09:38.516Z,40.70
2022-07-31T14:12:09.794Z,40.50
2022-07-31T14:14:40.657Z,40.70
2022-07-31T14:17:09.713Z,40.90
2022-07-31T14:19:44.330Z,40.40
2022-07-31T14:22:14.727Z,40.70
2022-07-31T14:24:49.963Z,40.50
2022-07-31T14:27:21.630Z,40.70
2022-07-31T14:29:50.754Z,40.50
2022-07-31T14:32:21.926Z,40.50
2022-07-31T14:34:52.419Z,40.30
2022-07-31T14:37:21.838Z,40.30
2022-07-31T14:39:50.762Z,40.30
2022-07-31T14:42:22.456Z,40.80
2022-07-31T14:44:55.327Z,41.00
2022-07-31T14:47:24.589Z,41.10
2022-07-31T14:50:11.276Z,40.80
2022-07-31T14:52:41.924Z,40.60
2022-07-31T14:55:11.400Z,40.40
2022-07-31T14:57:40.581Z,40.50
2022-07-31T15:00:13.211Z,40.70
2022-07-31T15:02:43.081Z,40.50
2022-07-31T15:06:43.890Z,40.70
2022-07-31T15:08:03.674Z,40.60
2022-07-31T15:10:33.278Z,40.70
2022-07-31T15:13:02.347Z,40.60
2022-07-31T15:15:31.891Z,40.40
2022-07-31T15:18:03.004Z,40.60
2022-07-31T15:20:35.176Z,40.50
2022-07-31T15:23:04.799Z,40.90
2022-07-31T15:25:33.627Z,41.20
2022-07-31T15:28:02.657Z,40.90
2022-07-31T15:30:31.515Z,40.80
2022-07-31T15:33:00.293Z,40.70
2022-07-31T15:35:29.566Z,40.90
2022-07-31T15:37:59.878Z,40.70
2022-07-31T15:40:28.897Z,40.90
2022-07-31T15:42:58.252Z,41.20
2022-07-31T15:45:27.227Z,41.40
2022-07-31T15:47:56.225Z,41.20
2022-07-31T15:50:25.390Z,41.00
2022-07-31T15:52:54.518Z,41.10
2022-07-31T15:55:24.859Z,41.20
2022-07-31T15:57:53.738Z,41.20
2022-07-31T16:00:23.215Z,41.20
2022-07-31T16:02:52.791Z,41.20
2022-07-31T16:05:36.614Z,41.40
2022-07-31T16:08:32.494Z,41.20
2022-07-31T16:11:00.111Z,41.20
2022-07-31T16:13:31.230Z,40.90
2022-07-31T16:16:00.331Z,40.90
2022-07-31T16:18:29.118Z,40.70
2022-07-31T16:20:58.135Z,40.70
2022-07-31T16:23:28.049Z,41.00
2022-07-31T16:25:57.174Z,41.00
2022-07-31T16:28:27.575Z,41.50
2022-07-31T16:30:56.813Z,42.20
2022-07-31T16:33:25.763Z,41.30
2022-07-31T16:35:55.364Z,40.90
2022-07-31T16:38:24.625Z,40.10
2022-07-31T16:40:53.743Z,40.10
2022-07-31T16:43:50.478Z,40.00
2022-07-31T16:46:12.880Z,40.40
2022-07-31T16:48:41.728Z,40.60
2022-07-31T16:51:10.621Z,40.30
2022-07-31T16:54:13.477Z,40.40
2022-07-31T16:56:28.900Z,40.30
2022-07-31T16:58:59.203Z,40.30
2022-07-31T17:01:57.152Z,40.40
2022-07-31T17:04:18.838Z,40.40
2022-07-31T17:06:48.267Z,40.30
2022-07-31T17:09:18.795Z,40.30
2022-07-31T17:11:51.388Z,40.40
2022-07-31T17:14:22.237Z,40.40
2022-07-31T17:16:53.356Z,40.50
2022-07-31T17:19:41.851Z,40.60
2022-07-31T17:22:17.533Z,40.50
2022-07-31T17:24:50.415Z,40.60
2022-07-31T17:27:20.530Z,40.90
2022-07-31T17:29:49.435Z,40.80
2022-07-31T17:32:20.037Z,41.10
2022-07-31T17:34:49.651Z,41.20
2022-07-31T17:37:19.766Z,41.00
2022-07-31T17:39:48.962Z,41.10
2022-07-31T17:42:18.043Z,41.00
2022-07-31T17:44:54.631Z,41.00
2022-07-31T17:47:26.272Z,40.40
2022-07-31T17:49:55.312Z,40.00
2022-07-31T17:52:24.254Z,39.70
2022-07-31T17:54:54.637Z,39.70
2022-07-31T17:57:24.050Z,39.90
2022-07-31T17:59:54.062Z,39.90
2022-07-31T18:02:25.031Z,40.00
2022-07-31T18:04:54.115Z,40.00
2022-07-31T18:07:24.204Z,40.00
2022-07-31T18:09:53.435Z,40.00
2022-07-31T18:12:24.382Z,40.00
2022-07-31T18:14:53.349Z,40.00
2022-07-31T18:17:22.349Z,40.00
2022-07-31T18:19:52.487Z,40.00
2022-07-31T18:22:21.372Z,39.90
2022-07-31T18:24:50.424Z,40.00
2022-07-31T18:27:19.576Z,40.10
2022-07-31T18:29:55.883Z,40.10
2022-07-31T18:32:26.011Z,40.30
2022-07-31T18:34:56.360Z,40.30
2022-07-31T18:37:25.361Z,41.30
2022-07-31T18:39:54.676Z,40.60
2022-07-31T18:42:24.080Z,41.40
2022-07-31T18:44:53.140Z,41.80
2022-07-31T18:47:22.450Z,41.30
2022-07-31T18:51:02.245Z,41.40
2022-07-31T18:52:41.807Z,41.70
2022-07-31T18:55:11.168Z,41.90
2022-07-31T18:57:40.556Z,41.80
2022-07-31T19:00:11.196Z,42.60
2022-07-31T19:02:40.327Z,43.40
2022-07-31T19:05:14.874Z,42.90
2022-07-31T19:07:52.607Z,42.90
2022-07-31T19:10:30.901Z,43.30
2022-07-31T19:13:00.910Z,43.40
2022-07-31T19:15:30.011Z,42.80
2022-07-31T19:18:02.175Z,43.50
2022-07-31T19:20:57.416Z,43.90
2022-07-31T19:23:23.263Z,44.00
2022-07-31T19:26:03.605Z,44.20
2022-07-31T19:28:33.872Z,43.80
2022-07-31T19:31:03.493Z,44.30
2022-07-31T19:33:32.953Z,44.10
2022-07-31T19:36:03.241Z,44.80
2022-07-31T19:38:35.753Z,44.70
2022-07-31T19:41:05.334Z,45.00
2022-07-31T19:43:34.386Z,45.20
2022-07-31T19:46:11.430Z,45.30
2022-07-31T19:48:41.747Z,45.40
2022-07-31T19:51:11.395Z,45.60
2022-07-31T19:53:42.792Z,45.60
2022-07-31T19:56:19.704Z,46.00
2022-07-31T19:58:50.541Z,46.40
2022-07-31T20:01:21.916Z,45.80
2022-07-31T20:03:52.974Z,46.80
2022-07-31T20:06:22.544Z,46.90
2022-07-31T20:08:56.570Z,46.40
2022-07-31T20:11:25.511Z,46.80
2022-07-31T20:13:54.420Z,47.20
2022-07-31T20:16:24.235Z,47.50
2022-07-31T20:18:53.126Z,47.30
2022-07-31T20:21:22.212Z,47.20
2022-07-31T20:23:50.962Z,47.40
2022-07-31T20:26:21.736Z,47.00
2022-07-31T20:28:50.934Z,47.20
2022-07-31T20:31:21.973Z,47.50
2022-07-31T20:33:56.918Z,47.60
2022-07-31T20:36:27.461Z,47.70
2022-07-31T20:38:57.990Z,47.70
2022-07-31T20:41:28.582Z,47.60
2022-07-31T20:43:57.721Z,47.90
2022-07-31T20:46:27.738Z,48.10
2022-07-31T20:48:57.379Z,48.00
2022-07-31T20:51:26.461Z,48.10
2022-07-31T20:53:55.670Z,48.30
2022-07-31T20:56:24.867Z,48.40
2022-07-31T20:58:55.381Z,48.60
2022-07-31T21:01:25.957Z,48.80
2022-07-31T21:03:55.894Z,49.10
2022-07-31T21:06:25.215Z,49.20
2022-07-31T21:08:54.020Z,49.20
2022-07-31T21:11:22.851Z,49.20
2022-07-31T21:14:02.856Z,49.40
2022-07-31T21:16:32.127Z,49.50
2022-07-31T21:19:01.154Z,49.60
2022-07-31T21:21:30.178Z,49.90
2022-07-31T21:24:00.850Z,49.90
2022-07-31T21:26:31.138Z,49.90
2022-07-31T21:29:02.026Z,50.30
2022-07-31T21:31:31.410Z,50.30
2022-07-31T21:34:00.606Z,50.20
2022-07-31T21:36:30.088Z,50.40
2022-07-31T21:38:59.478Z,50.60
2022-07-31T21:41:29.223Z,50.80
2022-07-31T21:43:59.868Z,51.00
2022-07-31T21:46:31.719Z,51.00
2022-07-31T21:49:01.112Z,51.30
2022-07-31T21:51:31.038Z,51.00
2022-07-31T21:54:00.239Z,50.80
2022-07-31T21:56:29.243Z,50.90
2022-07-31T21:58:58.254Z,51.10
2022-07-31T22:01:27.496Z,51.00
2022-07-31T22:03:58.568Z,51.10
2022-07-31T22:06:45.337Z,51.10
2022-07-31T22:09:16.243Z,51.20
2022-07-31T22:12:00.047Z,51.30
2022-07-31T22:14:31.403Z,51.30
2022-07-31T22:17:00.915Z,51.30
2022-07-31T22:19:32.169Z,51.40
2022-07-31T22:22:02.428Z,51.70
2022-07-31T22:24:32.499Z,51.90
2022-07-31T22:27:21.315Z,51.60
2022-07-31T22:29:51.659Z,51.80
2022-07-31T22:32:20.995Z,51.90
2022-07-31T22:34:52.187Z,52.10
2022-07-31T22:37:22.218Z,52.30
2022-07-31T22:39:52.562Z,52.40
2022-07-31T22:42:22.354Z,52.40
2022-07-31T22:44:51.923Z,52.50
2022-07-31T22:47:21.234Z,52.70
2022-07-31T22:49:52.621Z,52.80
2022-07-31T22:52:22.226Z,52.90
2022-07-31T22:54:51.426Z,52.70
2022-07-31T22:57:20.702Z,52.90
2022-07-31T22:59:49.968Z,52.90
2022-07-31T23:02:19.942Z,53.20
2022-07-31T23:04:50.820Z,53.10
2022-07-31T23:07:21.348Z,53.20
2022-07-31T23:09:50.509Z,53.40
2022-07-31T23:12:19.777Z,53.40
2022-07-31T23:14:48.982Z,53.60
2022-07-31T23:17:22.971Z,53.60
2022-07-31T23:19:54.412Z,53.60
2022-07-31T23:22:30.690Z,53.70
2022-07-31T23:25:03.119Z,53.70
2022-07-31T23:27:32.540Z,53.50
2022-07-31T23:30:01.910Z,53.20
2022-07-31T23:32:31.371Z,52.90
2022-07-31T23:35:00.815Z,52.50
2022-07-31T23:37:31.624Z,52.50
2022-07-31T23:40:00.788Z,52.80
2022-07-31T23:42:40.826Z,52.60
2022-07-31T23:45:12.453Z,52.90
2022-07-31T23:47:45.434Z,52.80
2022-07-31T23:50:17.067Z,53.00
2022-07-31T23:52:48.006Z,53.00
2022-07-31T23:55:17.317Z,53.20
2022-07-31T23:57:48.069Z,53.20
